createdAt,value
2023-04-17T00:08:29.208Z,38.41
2023-04-17T00:23:22.114Z,35.40
2023-04-17T00:38:14.232Z,38.48
2023-04-17T00:53:05.564Z,33.24
2023-04-17T01:07:57.279Z,34.39
2023-04-17T01:22:50.905Z,34.18
2023-04-17T01:37:45.540Z,34.21
2023-04-17T01:52:38.679Z,35.30
2023-04-17T02:07:31.181Z,37.02
2023-04-17T02:22:23.135Z,38.56
2023-04-17T02:37:14.492Z,35.23
2023-04-17T02:52:08.443Z,35.54
2023-04-17T03:07:01.948Z,35.79
2023-04-17T03:22:08.383Z,36.40
2023-04-17T03:37:03.992Z,39.82
2023-04-17T03:51:56.078Z,40.26
2023-04-17T04:06:48.194Z,35.04
2023-04-17T04:21:39.928Z,33.97
2023-04-17T04:36:31.257Z,36.07
2023-04-17T04:51:23.339Z,34.94
2023-04-17T05:06:15.456Z,34.43
2023-04-17T05:21:06.962Z,35.01
2023-04-17T05:50:51.560Z,32.78
2023-04-17T06:05:43.701Z,31.19
2023-04-17T06:20:36.617Z,33.36
2023-04-17T06:35:27.370Z,29.09
2023-04-17T06:50:19.983Z,27.62
2023-04-17T07:34:58.310Z,26.06
2023-04-17T09:20:00.752Z,12.58
2023-04-17T10:04:51.588Z,8.84
2023-04-17T16:13:21.687Z,5.43
2023-04-17T16:28:12.963Z,5.46
2023-04-17T16:43:03.945Z,3.87
2023-04-17T16:57:57.174Z,3.00
2023-04-17T17:12:49.920Z,5.66
2023-04-17T17:27:43.287Z,4.51
2023-04-17T17:42:36.833Z,4.56
2023-04-17T17:57:33.012Z,3.51
2023-04-17T18:12:32.627Z,7.68
2023-04-17T18:27:20.907Z,3.18
2023-04-17T18:42:12.012Z,5.57
2023-04-17T18:57:02.701Z,3.31
2023-04-17T19:11:53.028Z,3.58
2023-04-17T19:26:43.845Z,3.67
2023-04-17T19:41:35.964Z,4.12
2023-04-17T19:56:26.866Z,5.16
2023-04-17T20:26:40.321Z,7.32
2023-04-17T20:41:32.092Z,9.42
2023-04-17T20:56:26.220Z,7.48
2023-04-17T21:26:07.131Z,7.44
2023-04-17T21:40:59.110Z,9.52
2023-04-17T21:55:51.845Z,8.09
2023-04-17T22:10:44.302Z,8.68
2023-04-17T22:25:35.284Z,9.72
2023-04-17T22:40:26.446Z,9.79
2023-04-17T22:55:17.329Z,10.36
2023-04-17T23:10:09.191Z,10.26
2023-04-17T23:40:06.556Z,11.18
2023-04-17T23:54:58.986Z,11.08
